Time;durP1;ratioP1;P1;durP2;ratioP2;P2;SDS_P1;SDS_P2;PMS_P1;PMS_P2;Temp;Humidity;BMP_temperature;BMP_pressure;BME280_temperature;BME280_humidity;BME280_pressure;Samples;Min_cycle;Max_cycle;Signal;HPM_P1;HPM_P2
2022/01/04 00:01:41;;;;;;;2.83;0.77;;;;;;;;;;4919555;28;20708;-63
2022/01/04 00:04:08;;;;;;;1.50;0.80;;;;;;;;;;4945890;28;20196;-63
2022/01/04 00:06:34;;;;;;;1.80;0.70;;;;;;;;;;4930104;28;20083;-63
2022/01/04 00:09:04;;;;;;;4.05;0.95;;;;;;;;;;4934934;28;20063;-63
2022/01/04 00:11:44;;;;;;;2.30;0.90;;;;;;;;;;4910905;28;20145;-64
2022/01/04 00:14:13;;;;;;;2.85;0.90;;;;;;;;;;4946294;28;20057;-64
2022/01/04 00:16:39;;;;;;;4.18;0.63;;;;;;;;;;4935709;28;20197;-63
2022/01/04 00:19:06;;;;;;;2.05;0.90;;;;;;;;;;4942291;28;20154;-63
2022/01/04 00:21:32;;;;;;;3.05;0.70;;;;;;;;;;4947898;28;20146;-63
2022/01/04 00:24:00;;;;;;;2.45;0.90;;;;;;;;;;4932284;28;21423;-64
2022/01/04 00:26:26;;;;;;;1.90;0.95;;;;;;;;;;4931356;28;20497;-64
2022/01/04 00:28:53;;;;;;;5.75;1.67;;;;;;;;;;4943704;28;20138;-64
2022/01/04 00:31:21;;;;;;;2.20;0.70;;;;;;;;;;4927953;28;20531;-64
2022/01/04 00:33:48;;;;;;;4.07;0.80;;;;;;;;;;4931894;28;20558;-64
2022/01/04 00:36:14;;;;;;;1.35;0.65;;;;;;;;;;4928931;28;20726;-64
2022/01/04 00:38:41;;;;;;;2.38;0.90;;;;;;;;;;4934878;28;20138;-63
2022/01/04 00:41:07;;;;;;;1.95;0.75;;;;;;;;;;4936335;28;20167;-64
2022/01/04 00:43:34;;;;;;;3.17;0.60;;;;;;;;;;4939435;28;20061;-64
2022/01/04 00:46:01;;;;;;;1.17;0.60;;;;;;;;;;4935596;28;20137;-64
2022/01/04 00:51:13;;;;;;;2.10;0.70;;;;;;;;;;4932795;28;20070;-64
2022/01/04 00:53:40;;;;;;;1.10;0.60;;;;;;;;;;4937605;28;20637;-65
2022/01/04 00:56:06;;;;;;;1.95;1.08;;;;;;;;;;4935722;28;20130;-65
2022/01/04 00:58:33;;;;;;;1.83;0.90;;;;;;;;;;4928889;28;20536;-64
2022/01/04 01:00:59;;;;;;;1.02;0.60;;;;;;;;;;4921585;28;20503;-64
2022/01/04 01:03:26;;;;;;;2.50;0.60;;;;;;;;;;4929237;28;20134;-64
2022/01/04 01:05:54;;;;;;;0.98;0.70;;;;;;;;;;4922017;28;20443;-64
2022/01/04 01:08:20;;;;;;;2.15;1.08;;;;;;;;;;4925329;28;20090;-62
2022/01/04 01:10:49;;;;;;;3.95;1.48;;;;;;;;;;4927673;28;20058;-63
2022/01/04 01:13:16;;;;;;;3.33;1.27;;;;;;;;;;4958443;28;20146;-64
2022/01/04 01:15:45;;;;;;;4.55;1.15;;;;;;;;;;4962583;28;20132;-64
2022/01/04 01:18:13;;;;;;;2.55;0.70;;;;;;;;;;4945978;28;20062;-64
2022/01/04 01:20:40;;;;;;;4.40;0.70;;;;;;;;;;4958568;28;20684;-64
2022/01/04 01:23:08;;;;;;;2.08;0.70;;;;;;;;;;4971671;28;20085;-63
2022/01/04 01:25:35;;;;;;;3.42;1.00;;;;;;;;;;4966795;28;20070;-63
2022/01/04 01:28:02;;;;;;;3.15;0.90;;;;;;;;;;4961294;28;20126;-64
2022/01/04 01:30:30;;;;;;;1.98;0.68;;;;;;;;;;4953431;28;20075;-63
2022/01/04 01:32:57;;;;;;;1.00;0.57;;;;;;;;;;4955523;28;20055;-64
2022/01/04 01:35:23;;;;;;;1.63;0.55;;;;;;;;;;4958004;28;20518;-63
2022/01/04 01:37:50;;;;;;;1.77;0.77;;;;;;;;;;4955921;28;20133;-64
2022/01/04 01:40:18;;;;;;;1.02;0.60;;;;;;;;;;4956279;28;20165;-63
2022/01/04 01:42:44;;;;;;;2.38;1.10;;;;;;;;;;4959592;28;20071;-63
2022/01/04 01:45:13;;;;;;;1.40;0.70;;;;;;;;;;4956897;28;20058;-64
2022/01/04 01:47:41;;;;;;;2.40;1.08;;;;;;;;;;4960496;28;20062;-64
2022/01/04 01:50:08;;;;;;;1.73;0.70;;;;;;;;;;4952879;28;20098;-63
2022/01/04 01:52:35;;;;;;;2.30;1.00;;;;;;;;;;4955628;28;20078;-63
2022/01/04 01:55:02;;;;;;;4.50;0.73;;;;;;;;;;4962291;28;20396;-64
2022/01/04 01:57:30;;;;;;;3.03;0.90;;;;;;;;;;4963035;28;20440;-64
2022/01/04 01:59:57;;;;;;;2.08;0.70;;;;;;;;;;4958293;28;20531;-64
2022/01/04 02:02:24;;;;;;;2.92;0.80;;;;;;;;;;4958837;28;20106;-64
2022/01/04 02:04:50;;;;;;;3.80;0.77;;;;;;;;;;4957122;28;20129;-63
2022/01/04 02:07:20;;;;;;;3.28;1.20;;;;;;;;;;4959149;28;20070;-63
2022/01/04 02:09:54;;;;;;;4.15;1.90;;;;;;;;;;4958434;28;20553;-64
2022/01/04 02:12:21;;;;;;;1.88;0.90;;;;;;;;;;4961083;28;20049;-64
2022/01/04 02:14:53;;;;;;;2.50;1.02;;;;;;;;;;4961310;28;20078;-63
2022/01/04 02:17:19;;;;;;;1.00;0.75;;;;;;;;;;4964056;28;20455;-64
2022/01/04 02:19:47;;;;;;;3.08;0.98;;;;;;;;;;4958396;28;20129;-63
2022/01/04 02:22:14;;;;;;;6.22;1.60;;;;;;;;;;4960600;28;20147;-63
2022/01/04 02:24:40;;;;;;;2.28;0.90;;;;;;;;;;4958858;28;20078;-64
2022/01/04 02:27:07;;;;;;;1.90;0.70;;;;;;;;;;4935911;28;20518;-63
2022/01/04 02:29:34;;;;;;;3.03;1.17;;;;;;;;;;4956557;28;20192;-63
2022/01/04 02:32:00;;;;;;;3.65;1.25;;;;;;;;;;4962770;28;20134;-64
2022/01/04 02:34:27;;;;;;;4.05;1.50;;;;;;;;;;4960982;28;20159;-64
2022/01/04 02:36:55;;;;;;;2.13;0.80;;;;;;;;;;4959430;28;20074;-63
2022/01/04 02:39:21;;;;;;;2.92;1.25;;;;;;;;;;4963235;28;20075;-64
2022/01/04 02:42:04;;;;;;;4.38;1.58;;;;;;;;;;4963483;28;20098;-64
2022/01/04 02:44:30;;;;;;;3.35;1.50;;;;;;;;;;4960416;28;20457;-63
2022/01/04 02:46:57;;;;;;;3.15;1.05;;;;;;;;;;4966788;28;20515;-64
2022/01/04 02:49:24;;;;;;;2.20;0.90;;;;;;;;;;4950296;28;20117;-63
2022/01/04 02:51:50;;;;;;;3.88;1.10;;;;;;;;;;4961633;28;20079;-63
2022/01/04 02:54:18;;;;;;;2.17;1.00;;;;;;;;;;4964819;28;20047;-64
2022/01/04 02:56:45;;;;;;;3.55;1.10;;;;;;;;;;4958861;28;20440;-63
2022/01/04 02:59:11;;;;;;;3.25;0.85;;;;;;;;;;4963967;28;20134;-64
2022/01/04 03:01:38;;;;;;;2.28;0.90;;;;;;;;;;4960376;28;20062;-63
2022/01/04 03:04:05;;;;;;;3.28;1.00;;;;;;;;;;4960151;28;20130;-64
2022/01/04 03:06:31;;;;;;;2.15;0.82;;;;;;;;;;4953389;28;20499;-64
2022/01/04 03:08:58;;;;;;;1.38;0.65;;;;;;;;;;4963581;28;20074;-63
2022/01/04 03:11:26;;;;;;;2.08;0.85;;;;;;;;;;4964496;28;20067;-64
2022/01/04 03:13:52;;;;;;;4.55;1.10;;;;;;;;;;4959356;28;20078;-64
2022/01/04 03:16:19;;;;;;;2.80;0.90;;;;;;;;;;4955175;28;20138;-64
2022/01/04 03:19:02;;;;;;;8.27;2.65;;;;;;;;;;4959122;28;20078;-64
2022/01/04 03:21:30;;;;;;;3.75;0.90;;;;;;;;;;4948104;28;20059;-64
2022/01/04 03:23:57;;;;;;;2.08;0.95;;;;;;;;;;4959520;28;20346;-63
2022/01/04 03:26:23;;;;;;;1.63;0.90;;;;;;;;;;4963130;28;20043;-64
2022/01/04 03:28:51;;;;;;;4.22;1.60;;;;;;;;;;4967545;28;20158;-64
2022/01/04 03:31:18;;;;;;;3.20;0.75;;;;;;;;;;4963294;28;20067;-64
2022/01/04 03:33:45;;;;;;;3.35;1.85;;;;;;;;;;4958889;28;20081;-63
2022/01/04 03:36:11;;;;;;;2.97;1.10;;;;;;;;;;4960888;28;20081;-63
2022/01/04 03:38:38;;;;;;;1.70;0.80;;;;;;;;;;4958111;28;20047;-64
2022/01/04 03:41:07;;;;;;;1.88;0.95;;;;;;;;;;4955068;28;20783;-64
2022/01/04 03:43:37;;;;;;;4.32;1.13;;;;;;;;;;4964688;28;20122;-63
2022/01/04 03:46:05;;;;;;;2.15;0.80;;;;;;;;;;4958227;28;20050;-63
2022/01/04 03:48:32;;;;;;;3.63;0.93;;;;;;;;;;4963094;28;20130;-63
2022/01/04 03:50:58;;;;;;;2.60;1.27;;;;;;;;;;4957573;28;20503;-64
2022/01/04 03:53:25;;;;;;;3.17;1.40;;;;;;;;;;4964455;28;20078;-63
2022/01/04 03:55:52;;;;;;;2.13;0.90;;;;;;;;;;4962242;28;20110;-63
2022/01/04 03:58:18;;;;;;;2.63;1.30;;;;;;;;;;4965447;28;20043;-63
2022/01/04 04:00:45;;;;;;;2.72;1.00;;;;;;;;;;4966341;28;20077;-64
2022/01/04 04:03:12;;;;;;;2.75;1.02;;;;;;;;;;4959294;28;20063;-63
2022/01/04 04:05:39;;;;;;;3.28;1.23;;;;;;;;;;4960106;28;20066;-63
2022/01/04 04:08:06;;;;;;;2.70;1.10;;;;;;;;;;4962134;28;20074;-63
2022/01/04 04:10:32;;;;;;;2.72;1.10;;;;;;;;;;4957030;28;20522;-63
2022/01/04 04:12:59;;;;;;;2.38;0.80;;;;;;;;;;4956778;28;20047;-64
2022/01/04 04:15:26;;;;;;;2.42;1.15;;;;;;;;;;4954691;28;20491;-64
2022/01/04 04:17:52;;;;;;;1.80;1.08;;;;;;;;;;4963913;28;20062;-64
2022/01/04 04:20:21;;;;;;;1.13;0.60;;;;;;;;;;4959981;28;20154;-63
2022/01/04 04:22:47;;;;;;;2.65;1.25;;;;;;;;;;4965657;28;20074;-63
2022/01/04 04:25:14;;;;;;;3.78;1.02;;;;;;;;;;4958606;28;20085;-63
2022/01/04 04:27:41;;;;;;;2.63;1.00;;;;;;;;;;4962635;28;20433;-63
2022/01/04 04:30:08;;;;;;;1.48;0.80;;;;;;;;;;4954413;28;20081;-63
2022/01/04 04:32:35;;;;;;;2.85;1.20;;;;;;;;;;4963266;28;20475;-63
2022/01/04 04:35:02;;;;;;;4.93;0.75;;;;;;;;;;4967950;28;20070;-63
2022/01/04 04:37:30;;;;;;;2.20;1.23;;;;;;;;;;4963389;28;20336;-63
2022/01/04 04:39:56;;;;;;;3.70;1.00;;;;;;;;;;4966923;28;20066;-63
2022/01/04 04:42:23;;;;;;;1.95;1.00;;;;;;;;;;4964670;28;20094;-63
2022/01/04 04:44:49;;;;;;;3.05;0.90;;;;;;;;;;4967123;28;20494;-63
2022/01/04 04:47:16;;;;;;;2.72;1.05;;;;;;;;;;4961727;28;20571;-64
2022/01/04 04:49:42;;;;;;;4.13;1.42;;;;;;;;;;4963177;28;20070;-64
2022/01/04 04:52:09;;;;;;;2.72;1.15;;;;;;;;;;4962256;28;20067;-63
2022/01/04 04:54:37;;;;;;;1.95;1.00;;;;;;;;;;4962319;28;20059;-63
2022/01/04 04:57:04;;;;;;;1.95;0.88;;;;;;;;;;4954821;28;20452;-63
2022/01/04 04:59:31;;;;;;;2.03;0.80;;;;;;;;;;4958775;28;20507;-64
2022/01/04 05:01:57;;;;;;;2.80;0.93;;;;;;;;;;4960213;28;20042;-63
2022/01/04 05:04:24;;;;;;;2.22;0.80;;;;;;;;;;4968371;28;20148;-63
2022/01/04 05:06:50;;;;;;;2.28;0.93;;;;;;;;;;4963593;28;20585;-63
2022/01/04 05:09:17;;;;;;;2.05;0.93;;;;;;;;;;4965085;28;20067;-64
2022/01/04 05:11:45;;;;;;;2.85;0.98;;;;;;;;;;4962237;28;20134;-63
2022/01/04 05:14:11;;;;;;;3.10;0.90;;;;;;;;;;4958982;28;20081;-63
2022/01/04 05:16:38;;;;;;;2.83;1.10;;;;;;;;;;4955351;28;20081;-63
2022/01/04 05:19:04;;;;;;;3.17;1.20;;;;;;;;;;4956476;28;20067;-64
2022/01/04 05:21:31;;;;;;;1.55;0.90;;;;;;;;;;4962560;28;20136;-64
2022/01/04 05:23:57;;;;;;;3.30;0.82;;;;;;;;;;4958933;28;20536;-64
2022/01/04 05:26:24;;;;;;;2.17;0.68;;;;;;;;;;4963391;28;20078;-64
2022/01/04 05:28:52;;;;;;;1.35;0.63;;;;;;;;;;4956235;28;20141;-64
2022/01/04 05:31:19;;;;;;;1.42;0.70;;;;;;;;;;4962113;28;20179;-64
2022/01/04 05:33:45;;;;;;;1.52;0.80;;;;;;;;;;4955750;28;20352;-64
2022/01/04 05:36:12;;;;;;;1.90;0.88;;;;;;;;;;4954522;28;20467;-64
2022/01/04 05:38:38;;;;;;;3.47;1.55;;;;;;;;;;4964119;28;20075;-64
2022/01/04 05:41:05;;;;;;;1.38;0.60;;;;;;;;;;4962407;28;20047;-63
2022/01/04 05:43:31;;;;;;;1.30;0.80;;;;;;;;;;4955088;28;20492;-64
2022/01/04 05:45:59;;;;;;;5.00;0.98;;;;;;;;;;4956060;28;20075;-64
2022/01/04 05:48:26;;;;;;;3.13;1.45;;;;;;;;;;4962886;28;20510;-63
2022/01/04 05:50:53;;;;;;;2.38;1.00;;;;;;;;;;4955578;28;20061;-63
2022/01/04 05:53:20;;;;;;;1.48;0.80;;;;;;;;;;4956713;28;20351;-63
2022/01/04 05:55:46;;;;;;;2.50;1.00;;;;;;;;;;4959439;28;20082;-64
2022/01/04 05:58:13;;;;;;;2.45;1.10;;;;;;;;;;4961872;28;20391;-64
2022/01/04 06:00:40;;;;;;;1.50;0.75;;;;;;;;;;4966595;28;20198;-64
2022/01/04 06:03:08;;;;;;;2.42;0.90;;;;;;;;;;4957330;28;20066;-64
2022/01/04 06:05:34;;;;;;;2.72;0.90;;;;;;;;;;4948549;28;20109;-64
2022/01/04 06:08:01;;;;;;;1.58;0.98;;;;;;;;;;4960829;28;20130;-64
2022/01/04 06:10:35;;;;;;;2.70;0.80;;;;;;;;;;4955896;28;20164;-64
2022/01/04 06:15:46;;;;;;;1.42;0.82;;;;;;;;;;4963511;28;20049;-64
2022/01/04 06:18:14;;;;;;;2.40;1.00;;;;;;;;;;4949523;28;20194;-64
2022/01/04 06:20:40;;;;;;;3.22;0.93;;;;;;;;;;4964322;28;20480;-64
2022/01/04 06:23:07;;;;;;;1.63;1.00;;;;;;;;;;4960595;28;20097;-64
2022/01/04 06:25:34;;;;;;;2.78;0.93;;;;;;;;;;4960642;28;20074;-64
2022/01/04 06:28:00;;;;;;;1.60;0.88;;;;;;;;;;4962887;28;20071;-64
2022/01/04 06:30:27;;;;;;;4.32;1.08;;;;;;;;;;4966323;28;20125;-64
2022/01/04 06:32:53;;;;;;;2.13;1.05;;;;;;;;;;4964918;28;20067;-64
2022/01/04 06:35:21;;;;;;;2.25;0.90;;;;;;;;;;4965720;28;20081;-64
2022/01/04 06:37:49;;;;;;;1.58;0.88;;;;;;;;;;4959335;28;20102;-63
2022/01/04 06:40:15;;;;;;;1.52;0.68;;;;;;;;;;4967535;28;20043;-64
2022/01/04 06:42:42;;;;;;;2.60;0.98;;;;;;;;;;4963271;28;20051;-64
2022/01/04 06:45:11;;;;;;;2.17;0.70;;;;;;;;;;4958883;28;20102;-64
2022/01/04 06:47:37;;;;;;;2.63;1.10;;;;;;;;;;4962299;28;20046;-64
2022/01/04 06:50:04;;;;;;;1.83;0.93;;;;;;;;;;4966919;28;20063;-64
2022/01/04 06:52:32;;;;;;;2.08;1.10;;;;;;;;;;4963809;28;20105;-64
2022/01/04 06:54:59;;;;;;;2.33;1.00;;;;;;;;;;4966912;28;20081;-64
2022/01/04 06:57:26;;;;;;;6.68;1.58;;;;;;;;;;4956785;28;20070;-64
2022/01/04 06:59:52;;;;;;;1.50;0.60;;;;;;;;;;4964404;28;20081;-63
2022/01/04 07:02:19;;;;;;;1.17;0.70;;;;;;;;;;4962636;28;20082;-64
2022/01/04 07:04:45;;;;;;;2.78;0.80;;;;;;;;;;4962407;28;20078;-64
2022/01/04 07:07:12;;;;;;;1.90;0.60;;;;;;;;;;4963848;28;20523;-63
2022/01/04 07:09:41;;;;;;;2.50;0.70;;;;;;;;;;4963795;28;20086;-64
2022/01/04 07:12:09;;;;;;;2.22;0.90;;;;;;;;;;4961487;28;20049;-64
2022/01/04 07:14:35;;;;;;;1.30;0.85;;;;;;;;;;4962852;28;20079;-64
2022/01/04 07:17:02;;;;;;;4.32;1.30;;;;;;;;;;4964111;28;20133;-64
2022/01/04 07:19:28;;;;;;;5.40;1.20;;;;;;;;;;4967294;28;20129;-64
2022/01/04 07:21:55;;;;;;;1.02;0.60;;;;;;;;;;4962344;28;20136;-64
2022/01/04 07:24:21;;;;;;;1.42;0.75;;;;;;;;;;4940963;28;20078;-64
2022/01/04 07:26:49;;;;;;;1.38;0.60;;;;;;;;;;4961863;28;20079;-64
2022/01/04 07:29:16;;;;;;;1.75;0.70;;;;;;;;;;4963783;28;20549;-64
2022/01/04 07:31:42;;;;;;;1.10;0.60;;;;;;;;;;4961827;28;20051;-64
2022/01/04 07:34:09;;;;;;;0.88;0.57;;;;;;;;;;4960872;28;20496;-64
2022/01/04 07:36:35;;;;;;;4.45;1.00;;;;;;;;;;4961702;28;20523;-64
2022/01/04 07:39:02;;;;;;;2.20;0.82;;;;;;;;;;4960878;28;20066;-64
2022/01/04 07:41:29;;;;;;;1.90;0.93;;;;;;;;;;4960109;28;20075;-64
2022/01/04 07:43:57;;;;;;;2.10;0.82;;;;;;;;;;4960000;28;20043;-63
2022/01/04 07:46:25;;;;;;;2.60;0.60;;;;;;;;;;4963440;28;20439;-64
2022/01/04 07:48:52;;;;;;;1.58;0.73;;;;;;;;;;4964717;28;20423;-64
2022/01/04 07:51:18;;;;;;;1.80;1.02;;;;;;;;;;4962541;28;21525;-63
2022/01/04 07:53:45;;;;;;;1.95;0.80;;;;;;;;;;4963665;28;20483;-64
2022/01/04 07:56:11;;;;;;;1.23;0.60;;;;;;;;;;4960422;28;20150;-64
2022/01/04 07:58:38;;;;;;;1.60;0.60;;;;;;;;;;4969347;28;20079;-64
2022/01/04 08:01:06;;;;;;;1.55;0.68;;;;;;;;;;4967702;28;20113;-64
2022/01/04 08:03:33;;;;;;;1.10;0.73;;;;;;;;;;4966580;28;20137;-63
2022/01/04 08:05:59;;;;;;;3.88;1.25;;;;;;;;;;4964206;28;20323;-63
2022/01/04 08:08:26;;;;;;;2.58;1.27;;;;;;;;;;4962387;28;20050;-64
2022/01/04 08:10:52;;;;;;;0.68;0.65;;;;;;;;;;4956929;28;20070;-63
2022/01/04 08:13:19;;;;;;;1.50;0.80;;;;;;;;;;4957928;28;20451;-64
2022/01/04 08:15:45;;;;;;;1.27;0.80;;;;;;;;;;4960266;28;20562;-63
2022/01/04 08:18:13;;;;;;;1.83;0.77;;;;;;;;;;4963525;28;20090;-64
2022/01/04 08:20:40;;;;;;;1.95;0.85;;;;;;;;;;4964320;28;20086;-63
2022/01/04 08:23:06;;;;;;;3.45;0.65;;;;;;;;;;4952907;28;20063;-63
2022/01/04 08:25:33;;;;;;;4.68;1.27;;;;;;;;;;4952762;28;20436;-64
2022/01/04 08:27:59;;;;;;;1.48;0.60;;;;;;;;;;4957166;28;20071;-63
2022/01/04 08:30:26;;;;;;;1.98;0.70;;;;;;;;;;4957675;28;20074;-64
2022/01/04 08:32:53;;;;;;;1.40;0.70;;;;;;;;;;4957639;28;20075;-63
2022/01/04 08:35:22;;;;;;;2.55;0.85;;;;;;;;;;4958897;28;20055;-64
2022/01/04 08:37:48;;;;;;;1.92;0.60;;;;;;;;;;4956267;28;20035;-64
2022/01/04 08:40:15;;;;;;;1.55;0.70;;;;;;;;;;4958279;28;20467;-64
2022/01/04 08:42:42;;;;;;;2.55;1.00;;;;;;;;;;4955688;28;20066;-64
2022/01/04 08:45:09;;;;;;;1.45;0.50;;;;;;;;;;4959649;28;20448;-64
2022/01/04 08:47:36;;;;;;;1.88;0.68;;;;;;;;;;4961244;28;20158;-64
2022/01/04 08:50:04;;;;;;;0.82;0.50;;;;;;;;;;4961003;28;20054;-63
2022/01/04 08:52:32;;;;;;;2.15;0.73;;;;;;;;;;4956791;28;20133;-63
2022/01/04 08:54:58;;;;;;;1.58;0.80;;;;;;;;;;4960758;28;20158;-64
2022/01/04 08:57:25;;;;;;;1.52;0.93;;;;;;;;;;4962133;28;20159;-64
2022/01/04 08:59:54;;;;;;;1.65;0.80;;;;;;;;;;4954329;28;20142;-64
2022/01/04 09:02:21;;;;;;;1.95;0.80;;;;;;;;;;4959899;28;20428;-64
2022/01/04 09:04:48;;;;;;;3.17;0.70;;;;;;;;;;4960119;28;20071;-64
2022/01/04 09:07:15;;;;;;;1.75;0.70;;;;;;;;;;4963407;28;20926;-64
2022/01/04 09:09:43;;;;;;;1.00;0.57;;;;;;;;;;4961987;28;20494;-64
2022/01/04 09:12:10;;;;;;;1.05;0.52;;;;;;;;;;4962077;28;20143;-64
2022/01/04 09:14:55;;;;;;;1.23;0.60;;;;;;;;;;4961306;28;20039;-64
2022/01/04 09:20:09;;;;;;;1.40;0.50;;;;;;;;;;4959736;28;21227;-64
2022/01/04 09:22:36;;;;;;;2.97;0.60;;;;;;;;;;4957515;28;20070;-64
2022/01/04 09:25:04;;;;;;;1.98;0.52;;;;;;;;;;4961454;28;20039;-63
2022/01/04 09:27:31;;;;;;;1.55;0.57;;;;;;;;;;4960606;28;20137;-63
2022/01/04 09:30:02;;;;;;;3.28;0.50;;;;;;;;;;4957906;28;20604;-64
2022/01/04 09:32:29;;;;;;;1.23;0.70;;;;;;;;;;4959252;28;20517;-64
2022/01/04 09:34:55;;;;;;;2.53;0.75;;;;;;;;;;4963705;28;20065;-64
2022/01/04 09:37:22;;;;;;;1.45;0.75;;;;;;;;;;4958853;28;21089;-64
2022/01/04 09:39:48;;;;;;;1.38;0.73;;;;;;;;;;4957821;28;20134;-64
2022/01/04 09:42:16;;;;;;;1.10;0.52;;;;;;;;;;4961940;28;20078;-64
2022/01/04 09:44:43;;;;;;;0.93;0.50;;;;;;;;;;4959938;28;20486;-65
2022/01/04 09:47:10;;;;;;;1.35;0.65;;;;;;;;;;4958728;28;20141;-63
2022/01/04 09:49:36;;;;;;;2.60;0.77;;;;;;;;;;4962668;28;20133;-64
2022/01/04 09:52:04;;;;;;;2.90;0.82;;;;;;;;;;4962740;28;20526;-64
2022/01/04 09:54:31;;;;;;;1.38;0.52;;;;;;;;;;4964541;28;20245;-64
2022/01/04 09:56:59;;;;;;;2.80;1.08;;;;;;;;;;4965229;28;20142;-64
2022/01/04 09:59:27;;;;;;;0.82;0.57;;;;;;;;;;4957002;28;20615;-64
2022/01/04 10:02:01;;;;;;;3.50;0.60;;;;;;;;;;4959438;28;20141;-63
2022/01/04 10:04:28;;;;;;;0.80;0.50;;;;;;;;;;4960401;28;20054;-64
2022/01/04 10:07:00;;;;;;;1.48;0.68;;;;;;;;;;4960106;28;20563;-64
2022/01/04 10:09:38;;;;;;;1.52;0.68;;;;;;;;;;4958599;28;20435;-64
2022/01/04 10:12:07;;;;;;;1.60;0.60;;;;;;;;;;4961037;28;20508;-63
2022/01/04 10:14:44;;;;;;;4.20;1.13;;;;;;;;;;4964362;28;20427;-64
2022/01/04 10:17:14;;;;;;;4.72;1.08;;;;;;;;;;4959621;28;20086;-63
2022/01/04 10:19:43;;;;;;;1.45;0.75;;;;;;;;;;4961173;28;20436;-63
2022/01/04 10:22:12;;;;;;;9.45;2.17;;;;;;;;;;4939903;28;20178;-63
2022/01/04 10:24:39;;;;;;;2.47;0.90;;;;;;;;;;4960790;28;20129;-64
2022/01/04 10:27:24;;;;;;;3.22;1.30;;;;;;;;;;4962193;28;20142;-63
2022/01/04 10:30:11;;;;;;;2.22;1.15;;;;;;;;;;4962804;28;20074;-64
2022/01/04 10:32:49;;;;;;;1.42;0.60;;;;;;;;;;4962816;28;20062;-63
2022/01/04 10:35:28;;;;;;;1.30;0.70;;;;;;;;;;4960296;28;20081;-64
2022/01/04 10:37:57;;;;;;;2.83;0.70;;;;;;;;;;4962643;28;20050;-64
2022/01/04 10:40:25;;;;;;;2.50;0.80;;;;;;;;;;4968183;28;20066;-64
2022/01/04 10:42:51;;;;;;;0.90;0.52;;;;;;;;;;4964426;28;20376;-64
2022/01/04 10:45:34;;;;;;;2.30;1.45;;;;;;;;;;4962968;28;20134;-64
2022/01/04 10:48:15;;;;;;;0.98;0.52;;;;;;;;;;4960012;28;20082;-64
2022/01/04 10:50:43;;;;;;;1.38;0.80;;;;;;;;;;4954215;28;20086;-63
2022/01/04 10:53:19;;;;;;;1.60;0.63;;;;;;;;;;4966218;28;20050;-63
2022/01/04 10:55:47;;;;;;;1.50;0.63;;;;;;;;;;4961929;28;20074;-64
2022/01/04 10:58:23;;;;;;;1.45;0.57;;;;;;;;;;4961335;28;20078;-64
2022/01/04 11:00:57;;;;;;;3.42;1.40;;;;;;;;;;4966628;28;20074;-64
2022/01/04 11:03:31;;;;;;;3.05;1.10;;;;;;;;;;4961733;28;20081;-63
2022/01/04 11:06:01;;;;;;;1.92;0.98;;;;;;;;;;4959473;28;20376;-64
2022/01/04 11:08:28;;;;;;;1.60;0.77;;;;;;;;;;4961179;28;20790;-64
2022/01/04 11:10:55;;;;;;;1.13;0.60;;;;;;;;;;4960229;28;20149;-64
2022/01/04 11:13:23;;;;;;;2.58;0.77;;;;;;;;;;4961563;28;20042;-64
2022/01/04 11:15:50;;;;;;;2.88;0.90;;;;;;;;;;4962651;28;20043;-64
2022/01/04 11:18:18;;;;;;;1.42;0.80;;;;;;;;;;4966744;28;20125;-64
2022/01/04 11:20:46;;;;;;;2.45;1.15;;;;;;;;;;4947533;28;20403;-64
2022/01/04 11:23:14;;;;;;;2.30;0.93;;;;;;;;;;4963191;28;20066;-64
2022/01/04 11:25:43;;;;;;;1.95;1.05;;;;;;;;;;4969614;28;20121;-64
2022/01/04 11:28:11;;;;;;;1.08;0.60;;;;;;;;;;4962020;28;20117;-64
2022/01/04 11:30:49;;;;;;;3.05;1.40;;;;;;;;;;4958905;28;20102;-64
2022/01/04 11:33:22;;;;;;;2.13;0.82;;;;;;;;;;4966030;28;20927;-64
2022/01/04 11:35:49;;;;;;;1.65;0.90;;;;;;;;;;4969367;28;20077;-64
2022/01/04 11:38:31;;;;;;;2.38;0.90;;;;;;;;;;4963778;28;20113;-63
2022/01/04 11:40:58;;;;;;;2.10;0.98;;;;;;;;;;4962049;28;20551;-64
2022/01/04 11:43:26;;;;;;;3.17;0.90;;;;;;;;;;4953192;28;20070;-64
2022/01/04 11:45:53;;;;;;;1.67;0.90;;;;;;;;;;4965911;28;20133;-64
2022/01/04 11:48:30;;;;;;;2.17;1.00;;;;;;;;;;4961133;28;20062;-64
2022/01/04 11:50:58;;;;;;;3.38;1.10;;;;;;;;;;4964975;28;20078;-64
2022/01/04 11:53:25;;;;;;;3.35;1.40;;;;;;;;;;4956382;28;20138;-64
2022/01/04 11:55:52;;;;;;;3.70;1.00;;;;;;;;;;4960683;28;20122;-64
2022/01/04 11:58:21;;;;;;;1.65;0.85;;;;;;;;;;4962518;28;20086;-63
2022/01/04 12:00:57;;;;;;;1.75;0.93;;;;;;;;;;4958426;28;20046;-63
2022/01/04 12:03:41;;;;;;;3.00;0.90;;;;;;;;;;4958964;28;20042;-63
2022/01/04 12:06:09;;;;;;;2.22;0.73;;;;;;;;;;4955581;28;20368;-63
2022/01/04 12:08:37;;;;;;;1.50;0.80;;;;;;;;;;4959228;28;20121;-64
2022/01/04 12:11:04;;;;;;;2.42;1.08;;;;;;;;;;4955538;28;20047;-63
2022/01/04 12:13:46;;;;;;;1.48;0.70;;;;;;;;;;4961222;28;20535;-63
2022/01/04 12:16:13;;;;;;;2.75;1.00;;;;;;;;;;4958995;28;20038;-64
2022/01/04 12:18:59;;;;;;;3.28;1.60;;;;;;;;;;4959716;28;20130;-64
2022/01/04 12:21:30;;;;;;;;;;;;;;;;;;4951576;28;20480;-64
2022/01/04 12:23:57;;;;;;;2.08;1.05;;;;;;;;;;4953060;28;19985;-64
2022/01/04 12:26:25;;;;;;;2.25;0.93;;;;;;;;;;4953820;28;20040;-64
2022/01/04 12:29:18;;;;;;;1.23;0.70;;;;;;;;;;4959167;28;20073;-64
2022/01/04 12:31:46;;;;;;;1.70;1.00;;;;;;;;;;4958979;28;20055;-63
2022/01/04 12:34:28;;;;;;;1.55;0.73;;;;;;;;;;4960937;28;20117;-63
2022/01/04 12:36:54;;;;;;;2.33;0.90;;;;;;;;;;4958973;28;20074;-63
2022/01/04 12:39:23;;;;;;;3.25;1.00;;;;;;;;;;4962456;28;20089;-63
2022/01/04 12:41:51;;;;;;;1.73;0.90;;;;;;;;;;4958134;28;20134;-64
2022/01/04 12:44:23;;;;;;;2.45;0.95;;;;;;;;;;4958788;28;20491;-64
2022/01/04 12:46:50;;;;;;;5.80;1.42;;;;;;;;;;4958078;28;20582;-64
2022/01/04 12:49:18;;;;;;;3.15;1.02;;;;;;;;;;4957792;28;20421;-63
2022/01/04 12:51:47;;;;;;;1.45;0.85;;;;;;;;;;4957072;28;20177;-63
2022/01/04 12:54:15;;;;;;;3.97;1.13;;;;;;;;;;4934741;28;20364;-63
2022/01/04 12:56:44;;;;;;;2.33;1.10;;;;;;;;;;4961562;28;20407;-63
2022/01/04 12:59:11;;;;;;;3.50;1.40;;;;;;;;;;4953804;28;20194;-64
2022/01/04 13:01:38;;;;;;;3.88;1.10;;;;;;;;;;4957051;28;20776;-63
2022/01/04 13:04:23;;;;;;;3.67;1.02;;;;;;;;;;4958023;28;20153;-64
2022/01/04 13:06:51;;;;;;;3.15;1.33;;;;;;;;;;4959479;28;20138;-63
2022/01/04 13:09:18;;;;;;;5.07;1.60;;;;;;;;;;4954931;28;20694;-63
2022/01/04 13:11:48;;;;;;;2.63;0.85;;;;;;;;;;4959150;28;20146;-63
2022/01/04 13:14:20;;;;;;;12.75;2.88;;;;;;;;;;4960178;28;20043;-64
2022/01/04 13:16:47;;;;;;;2.40;1.13;;;;;;;;;;4955271;28;20165;-64
2022/01/04 13:19:14;;;;;;;2.10;1.10;;;;;;;;;;4958810;28;20073;-63
2022/01/04 13:21:41;;;;;;;2.38;1.25;;;;;;;;;;4957393;28;20138;-64
2022/01/04 13:24:09;;;;;;;1.63;1.15;;;;;;;;;;4952301;28;20214;-64
2022/01/04 13:26:37;;;;;;;2.25;1.23;;;;;;;;;;4954323;28;20129;-63
2022/01/04 13:29:04;;;;;;;1.63;1.02;;;;;;;;;;4959825;28;20134;-63
2022/01/04 13:31:30;;;;;;;2.58;1.08;;;;;;;;;;4953264;28;20146;-64
2022/01/04 13:33:57;;;;;;;3.83;1.70;;;;;;;;;;4956779;28;20178;-64
2022/01/04 13:36:24;;;;;;;2.47;0.98;;;;;;;;;;4955755;28;20055;-63
2022/01/04 13:38:51;;;;;;;2.13;0.98;;;;;;;;;;4954674;28;20086;-64
2022/01/04 13:41:33;;;;;;;3.10;1.30;;;;;;;;;;4954708;28;20491;-63
2022/01/04 13:44:02;;;;;;;2.05;1.10;;;;;;;;;;4955870;28;20082;-63
2022/01/04 13:46:29;;;;;;;2.28;1.00;;;;;;;;;;4952139;28;20082;-64
2022/01/04 13:48:56;;;;;;;2.50;1.00;;;;;;;;;;4951855;28;20135;-64
2022/01/04 13:51:26;;;;;;;5.38;1.67;;;;;;;;;;4953350;28;20078;-63
2022/01/04 13:53:55;;;;;;;3.70;1.50;;;;;;;;;;4953686;28;20114;-63
2022/01/04 13:56:23;;;;;;;4.45;1.80;;;;;;;;;;4955187;28;20050;-64
2022/01/04 13:58:54;;;;;;;2.70;1.40;;;;;;;;;;4951969;28;20055;-64
2022/01/04 14:01:23;;;;;;;2.42;1.13;;;;;;;;;;4954082;28;20066;-63
2022/01/04 14:03:52;;;;;;;5.45;1.40;;;;;;;;;;4956270;28;20058;-63
2022/01/04 14:06:37;;;;;;;3.17;1.30;;;;;;;;;;4936708;28;20130;-63
2022/01/04 14:09:06;;;;;;;2.88;1.30;;;;;;;;;;4951226;28;20077;-64
2022/01/04 14:11:37;;;;;;;2.47;1.08;;;;;;;;;;4952639;28;20120;-63
2022/01/04 14:14:10;;;;;;;3.25;1.00;;;;;;;;;;4955968;28;20110;-63
2022/01/04 14:16:42;;;;;;;4.57;1.58;;;;;;;;;;4951984;28;20176;-63
2022/01/04 14:19:11;;;;;;;6.28;1.85;;;;;;;;;;4937321;28;20130;-64
2022/01/04 14:21:39;;;;;;;4.70;1.73;;;;;;;;;;4954360;28;20631;-64
2022/01/04 14:24:39;;;;;;;3.53;1.40;;;;;;;;;;4955281;28;20075;-63
2022/01/04 14:27:08;;;;;;;4.25;1.80;;;;;;;;;;4952123;28;20057;-63
2022/01/04 14:29:38;;;;;;;3.13;1.50;;;;;;;;;;4951532;28;20484;-63
2022/01/04 14:32:08;;;;;;;3.25;1.80;;;;;;;;;;4952236;28;20055;-63
2022/01/04 14:34:34;;;;;;;6.07;1.30;;;;;;;;;;4955102;28;20063;-63
2022/01/04 14:37:01;;;;;;;2.47;1.25;;;;;;;;;;4959206;28;20174;-63
2022/01/04 14:39:31;;;;;;;4.07;1.65;;;;;;;;;;4955659;28;20133;-63
2022/01/04 14:41:59;;;;;;;5.10;1.70;;;;;;;;;;4959068;28;20145;-63
2022/01/04 14:44:26;;;;;;;2.45;1.25;;;;;;;;;;4959117;28;20065;-63
2022/01/04 14:46:54;;;;;;;2.28;1.13;;;;;;;;;;4957245;28;20150;-63
2022/01/04 14:49:20;;;;;;;3.88;1.25;;;;;;;;;;4958039;28;20582;-63
2022/01/04 14:51:47;;;;;;;5.63;2.05;;;;;;;;;;4960308;28;20517;-63
2022/01/04 14:54:14;;;;;;;1.80;1.00;;;;;;;;;;4955901;28;20145;-63
2022/01/04 14:56:41;;;;;;;1.85;1.10;;;;;;;;;;4956622;28;20053;-63
2022/01/04 14:59:08;;;;;;;2.25;1.08;;;;;;;;;;4955155;28;20082;-64